sensor_id;sensor_type;location;lat;lon;timestamp;pressure;altitude;pressure_sealevel;temperature;humidity
60427;BME280;46274;47.168;27.604;2023-04-07T00:00:05;99596.31;;;1.79;82.14
60427;BME280;46274;47.168;27.604;2023-04-07T00:06:09;99444.25;;;0.74;83.05
60427;BME280;46274;47.168;27.604;2023-04-07T00:12:13;99579.25;;;1.49;83.20
60427;BME280;46274;47.168;27.604;2023-04-07T00:18:15;99608.00;;;1.04;87.49
60427;BME280;46274;47.168;27.604;2023-04-07T00:24:18;99594.63;;;1.36;85.13
60427;BME280;46274;47.168;27.604;2023-04-07T00:30:34;99587.81;;;1.64;83.79
60427;BME280;46274;47.168;27.604;2023-04-07T00:36:37;99561.56;;;1.27;84.17
60427;BME280;46274;47.168;27.604;2023-04-07T00:42:39;99579.41;;;1.06;86.11
60427;BME280;46274;47.168;27.604;2023-04-07T00:48:42;99599.50;;;1.10;87.07
60427;BME280;46274;47.168;27.604;2023-04-07T00:54:47;99591.09;;;1.15;87.16
60427;BME280;46274;47.168;27.604;2023-04-07T01:07:27;99570.34;;;1.18;85.63
60427;BME280;46274;47.168;27.604;2023-04-07T01:13:37;99605.38;;;1.46;85.46
60427;BME280;46274;47.168;27.604;2023-04-07T01:26:16;99604.56;;;1.13;87.28
60427;BME280;46274;47.168;27.604;2023-04-07T01:32:20;99585.22;;;1.00;88.35
60427;BME280;46274;47.168;27.604;2023-04-07T01:38:27;99454.34;;;-0.16;89.42
60427;BME280;46274;47.168;27.604;2023-04-07T01:44:31;99580.09;;;1.08;87.19
60427;BME280;46274;47.168;27.604;2023-04-07T01:50:34;99495.53;;;0.67;86.17
60427;BME280;46274;47.168;27.604;2023-04-07T01:56:39;99625.91;;;1.45;85.84
60427;BME280;46274;47.168;27.604;2023-04-07T02:02:43;99620.44;;;1.68;84.21
60427;BME280;46274;47.168;27.604;2023-04-07T02:08:51;99570.81;;;1.23;84.62
60427;BME280;46274;47.168;27.604;2023-04-07T02:14:59;99583.75;;;1.07;86.25
60427;BME280;46274;47.168;27.604;2023-04-07T02:21:03;99626.84;;;1.23;86.75
60427;BME280;46274;47.168;27.604;2023-04-07T02:27:07;99633.47;;;1.29;86.89
60427;BME280;46274;47.168;27.604;2023-04-07T02:33:10;99610.94;;;1.01;87.80
60427;BME280;46274;47.168;27.604;2023-04-07T02:39:15;99602.47;;;0.96;87.36
60427;BME280;46274;47.168;27.604;2023-04-07T02:45:18;99650.19;;;1.10;88.10
60427;BME280;46274;47.168;27.604;2023-04-07T02:51:21;99652.34;;;1.16;87.90
60427;BME280;46274;47.168;27.604;2023-04-07T02:57:26;99617.75;;;0.94;87.11
60427;BME280;46274;47.168;27.604;2023-04-07T03:03:30;99671.72;;;1.18;87.19
60427;BME280;46274;47.168;27.604;2023-04-07T03:09:36;99672.00;;;1.15;87.52
60427;BME280;46274;47.168;27.604;2023-04-07T03:15:40;99645.81;;;1.09;86.51
60427;BME280;46274;47.168;27.604;2023-04-07T03:21:42;99638.31;;;1.03;86.53
60427;BME280;46274;47.168;27.604;2023-04-07T03:27:46;99693.66;;;1.33;86.24
60427;BME280;46274;47.168;27.604;2023-04-07T03:33:49;99665.88;;;1.03;86.53
60427;BME280;46274;47.168;27.604;2023-04-07T03:39:52;99701.31;;;1.26;86.05
60427;BME280;46274;47.168;27.604;2023-04-07T03:45:54;99708.84;;;1.21;86.55
60427;BME280;46274;47.168;27.604;2023-04-07T03:51:59;99711.50;;;1.33;86.39
60427;BME280;46274;47.168;27.604;2023-04-07T03:58:01;99727.50;;;1.33;85.67
60427;BME280;46274;47.168;27.604;2023-04-07T04:04:04;99719.59;;;1.31;85.79
60427;BME280;46274;47.168;27.604;2023-04-07T04:10:10;99685.13;;;1.07;85.80
60427;BME280;46274;47.168;27.604;2023-04-07T04:16:12;99575.59;;;0.21;86.64
60427;BME280;46274;47.168;27.604;2023-04-07T04:22:22;99611.25;;;0.75;85.14
60427;BME280;46274;47.168;27.604;2023-04-07T04:28:27;99762.63;;;1.60;85.18
60427;BME280;46274;47.168;27.604;2023-04-07T04:34:42;99634.69;;;0.49;86.47
60427;BME280;46274;47.168;27.604;2023-04-07T04:40:46;99711.81;;;1.07;86.36
60427;BME280;46274;47.168;27.604;2023-04-07T04:46:52;99770.53;;;1.83;84.99
60427;BME280;46274;47.168;27.604;2023-04-07T04:52:54;99785.44;;;1.85;85.16
60427;BME280;46274;47.168;27.604;2023-04-07T04:58:57;99644.63;;;1.02;84.95
60427;BME280;46274;47.168;27.604;2023-04-07T05:04:59;99680.53;;;0.98;85.00
60427;BME280;46274;47.168;27.604;2023-04-07T05:11:02;99806.34;;;1.80;85.12
60427;BME280;46274;47.168;27.604;2023-04-07T05:17:04;99666.19;;;1.10;84.66
60427;BME280;46274;47.168;27.604;2023-04-07T05:23:07;99826.41;;;2.07;84.94
60427;BME280;46274;47.168;27.604;2023-04-07T05:29:09;99703.25;;;1.57;84.25
60427;BME280;46274;47.168;27.604;2023-04-07T05:35:12;99786.47;;;2.26;84.00
60427;BME280;46274;47.168;27.604;2023-04-07T05:41:15;99826.88;;;2.75;83.28
60427;BME280;46274;47.168;27.604;2023-04-07T05:47:19;99834.78;;;3.07;82.98
60427;BME280;46274;47.168;27.604;2023-04-07T05:53:24;99836.31;;;3.10;82.88
60427;BME280;46274;47.168;27.604;2023-04-07T05:59:36;99815.28;;;2.95;82.29
60427;BME280;46274;47.168;27.604;2023-04-07T06:05:46;99853.19;;;3.31;81.79
60427;BME280;46274;47.168;27.604;2023-04-07T06:11:50;99849.53;;;3.32;81.64
60427;BME280;46274;47.168;27.604;2023-04-07T06:17:53;99863.97;;;3.50;81.15
60427;BME280;46274;47.168;27.604;2023-04-07T06:23:56;99841.84;;;3.48;80.35
60427;BME280;46274;47.168;27.604;2023-04-07T06:29:58;99871.28;;;3.39;80.34
60427;BME280;46274;47.168;27.604;2023-04-07T06:36:01;99815.22;;;3.16;79.91
60427;BME280;46274;47.168;27.604;2023-04-07T06:42:03;99878.31;;;3.80;79.42
60427;BME280;46274;47.168;27.604;2023-04-07T06:48:05;99893.72;;;3.98;79.05
60427;BME280;46274;47.168;27.604;2023-04-07T06:54:08;99893.47;;;4.40;78.15
60427;BME280;46274;47.168;27.604;2023-04-07T07:00:15;99749.19;;;3.26;78.25
60427;BME280;46274;47.168;27.604;2023-04-07T07:06:17;99903.59;;;4.07;78.02
60427;BME280;46274;47.168;27.604;2023-04-07T07:12:19;99912.66;;;4.35;77.50
60427;BME280;46274;47.168;27.604;2023-04-07T07:18:22;99852.78;;;4.15;76.94
60427;BME280;46274;47.168;27.604;2023-04-07T07:24:25;99897.13;;;4.48;76.89
60427;BME280;46274;47.168;27.604;2023-04-07T07:30:29;99915.06;;;4.48;76.51
60427;BME280;46274;47.168;27.604;2023-04-07T07:36:32;99939.47;;;4.25;76.35
60427;BME280;46274;47.168;27.604;2023-04-07T07:42:35;99857.31;;;3.95;76.29
60427;BME280;46274;47.168;27.604;2023-04-07T07:48:37;99884.00;;;4.16;75.80
60427;BME280;46274;47.168;27.604;2023-04-07T07:54:40;99958.81;;;4.77;75.64
60427;BME280;46274;47.168;27.604;2023-04-07T08:00:42;99944.00;;;4.73;75.90
60427;BME280;46274;47.168;27.604;2023-04-07T08:06:44;99975.91;;;5.06;74.58
60427;BME280;46274;47.168;27.604;2023-04-07T08:12:47;99871.28;;;4.57;74.19
60427;BME280;46274;47.168;27.604;2023-04-07T08:18:49;99954.69;;;5.22;74.27
60427;BME280;46274;47.168;27.604;2023-04-07T08:24:54;99939.47;;;4.74;73.50
60427;BME280;46274;47.168;27.604;2023-04-07T08:30:56;99970.28;;;4.89;73.49
60427;BME280;46274;47.168;27.604;2023-04-07T08:37:01;99985.25;;;4.92;73.35
60427;BME280;46274;47.168;27.604;2023-04-07T08:43:08;99989.00;;;5.38;72.66
60427;BME280;46274;47.168;27.604;2023-04-07T08:49:11;99991.16;;;5.05;73.21
60427;BME280;46274;47.168;27.604;2023-04-07T08:55:16;99841.06;;;4.35;72.76
60427;BME280;46274;47.168;27.604;2023-04-07T09:01:19;100005.72;;;5.12;72.27
60427;BME280;46274;47.168;27.604;2023-04-07T09:07:22;100007.00;;;4.89;73.57
60427;BME280;46274;47.168;27.604;2023-04-07T09:13:24;100019.69;;;4.67;73.85
60427;BME280;46274;47.168;27.604;2023-04-07T09:19:27;99890.19;;;4.17;73.43
60427;BME280;46274;47.168;27.604;2023-04-07T09:25:31;100025.91;;;4.77;73.67
60427;BME280;46274;47.168;27.604;2023-04-07T09:31:46;100026.53;;;4.91;73.96
60427;BME280;46274;47.168;27.604;2023-04-07T09:38:01;100033.41;;;4.74;73.83
60427;BME280;46274;47.168;27.604;2023-04-07T09:44:04;100023.53;;;4.94;73.75
60427;BME280;46274;47.168;27.604;2023-04-07T09:50:08;99887.50;;;4.07;73.35
60427;BME280;46274;47.168;27.604;2023-04-07T09:56:22;99998.38;;;4.95;72.53
60427;BME280;46274;47.168;27.604;2023-04-07T10:02:24;100037.91;;;5.88;71.69
60427;BME280;46274;47.168;27.604;2023-04-07T10:08:31;99939.19;;;5.06;71.12
60427;BME280;46274;47.168;27.604;2023-04-07T10:14:34;100056.16;;;5.47;71.24
60427;BME280;46274;47.168;27.604;2023-04-07T10:20:40;100017.44;;;5.21;70.83
60427;BME280;46274;47.168;27.604;2023-04-07T10:26:43;100059.41;;;5.32;71.27
60427;BME280;46274;47.168;27.604;2023-04-07T10:32:50;100068.75;;;5.28;71.63
60427;BME280;46274;47.168;27.604;2023-04-07T10:58:25;100060.34;;;5.69;71.34
60427;BME280;46274;47.168;27.604;2023-04-07T11:04:40;100067.13;;;5.74;70.84
60427;BME280;46274;47.168;27.604;2023-04-07T11:10:46;100047.53;;;6.01;70.71
60427;BME280;46274;47.168;27.604;2023-04-07T11:16:49;100051.59;;;6.15;70.16
60427;BME280;46274;47.168;27.604;2023-04-07T11:22:59;100053.50;;;6.04;70.24
60427;BME280;46274;47.168;27.604;2023-04-07T11:29:01;100061.56;;;6.32;69.50
60427;BME280;46274;47.168;27.604;2023-04-07T11:35:08;100057.31;;;6.57;69.61
60427;BME280;46274;47.168;27.604;2023-04-07T11:41:12;100070.28;;;6.44;68.89
60427;BME280;46274;47.168;27.604;2023-04-07T11:47:15;100064.72;;;6.73;68.53
60427;BME280;46274;47.168;27.604;2023-04-07T11:53:27;99999.22;;;6.37;68.41
60427;BME280;46274;47.168;27.604;2023-04-07T11:59:30;100073.13;;;6.42;69.09
60427;BME280;46274;47.168;27.604;2023-04-07T12:05:43;100074.47;;;6.56;68.96
60427;BME280;46274;47.168;27.604;2023-04-07T12:11:48;100071.13;;;6.44;69.18
60427;BME280;46274;47.168;27.604;2023-04-07T12:17:51;100033.84;;;6.49;68.02
60427;BME280;46274;47.168;27.604;2023-04-07T12:23:53;100069.88;;;6.66;68.08
60427;BME280;46274;47.168;27.604;2023-04-07T12:29:56;100078.56;;;6.78;68.56
60427;BME280;46274;47.168;27.604;2023-04-07T12:35:58;100041.88;;;6.59;68.32
60427;BME280;46274;47.168;27.604;2023-04-07T12:42:01;100053.69;;;6.21;69.37
60427;BME280;46274;47.168;27.604;2023-04-07T12:48:03;100064.78;;;6.08;69.78
60427;BME280;46274;47.168;27.604;2023-04-07T12:54:06;100053.88;;;6.09;70.35
60427;BME280;46274;47.168;27.604;2023-04-07T13:00:09;100103.59;;;5.86;70.99
60427;BME280;46274;47.168;27.604;2023-04-07T13:06:12;100093.75;;;6.51;69.85
60427;BME280;46274;47.168;27.604;2023-04-07T13:12:15;100093.75;;;6.51;69.87
60427;BME280;46274;47.168;27.604;2023-04-07T13:18:18;100098.81;;;6.27;70.58
60427;BME280;46274;47.168;27.604;2023-04-07T13:24:21;100088.66;;;6.21;71.00
60427;BME280;46274;47.168;27.604;2023-04-07T13:30:25;100039.03;;;6.05;70.40
60427;BME280;46274;47.168;27.604;2023-04-07T13:36:28;100116.09;;;6.24;71.50
60427;BME280;46274;47.168;27.604;2023-04-07T13:42:30;100118.03;;;6.42;70.63
60427;BME280;46274;47.168;27.604;2023-04-07T13:48:33;100107.56;;;6.39;70.55
60427;BME280;46274;47.168;27.604;2023-04-07T13:54:35;100104.09;;;6.56;69.91
60427;BME280;46274;47.168;27.604;2023-04-07T14:00:39;100106.41;;;6.41;70.94
60427;BME280;46274;47.168;27.604;2023-04-07T14:06:42;100102.91;;;6.31;71.03
60427;BME280;46274;47.168;27.604;2023-04-07T14:12:46;99964.06;;;5.55;71.49
60427;BME280;46274;47.168;27.604;2023-04-07T14:18:49;100104.38;;;6.25;71.72
60427;BME280;46274;47.168;27.604;2023-04-07T14:24:53;100098.22;;;6.61;71.52
60427;BME280;46274;47.168;27.604;2023-04-07T14:30:56;100102.41;;;6.73;71.75
60427;BME280;46274;47.168;27.604;2023-04-07T14:36:59;100044.06;;;6.18;72.10
60427;BME280;46274;47.168;27.604;2023-04-07T14:43:01;100101.88;;;6.69;71.97
60427;BME280;46274;47.168;27.604;2023-04-07T14:49:08;100084.84;;;6.51;72.14
60427;BME280;46274;47.168;27.604;2023-04-07T14:55:11;100071.47;;;6.31;72.76
60427;BME280;46274;47.168;27.604;2023-04-07T15:01:13;99988.19;;;6.12;71.75
60427;BME280;46274;47.168;27.604;2023-04-07T15:07:16;99991.22;;;5.89;72.38
60427;BME280;46274;47.168;27.604;2023-04-07T15:13:21;100113.97;;;6.83;72.02
60427;BME280;46274;47.168;27.604;2023-04-07T15:19:24;100114.69;;;6.58;72.78
60427;BME280;46274;47.168;27.604;2023-04-07T15:25:26;99996.59;;;5.89;71.92
60427;BME280;46274;47.168;27.604;2023-04-07T15:31:30;100121.34;;;6.81;72.24
60427;BME280;46274;47.168;27.604;2023-04-07T15:37:35;100137.78;;;6.23;73.82
60427;BME280;46274;47.168;27.604;2023-04-07T15:43:42;100047.69;;;6.27;72.28
60427;BME280;46274;47.168;27.604;2023-04-07T15:49:44;100132.69;;;6.85;72.07
60427;BME280;46274;47.168;27.604;2023-04-07T15:55:47;100132.34;;;6.70;72.31
60427;BME280;46274;47.168;27.604;2023-04-07T16:01:49;100139.34;;;6.53;72.43
60427;BME280;46274;47.168;27.604;2023-04-07T16:07:52;100145.66;;;5.77;74.64
60427;BME280;46274;47.168;27.604;2023-04-07T16:13:57;100160.50;;;5.23;75.91
60427;BME280;46274;47.168;27.604;2023-04-07T16:20:02;100155.28;;;5.99;73.86
60427;BME280;46274;47.168;27.604;2023-04-07T16:26:05;100172.56;;;5.97;72.86
60427;BME280;46274;47.168;27.604;2023-04-07T16:32:07;100146.59;;;5.86;73.15
60427;BME280;46274;47.168;27.604;2023-04-07T16:38:12;100148.78;;;4.54;77.29
60427;BME280;46274;47.168;27.604;2023-04-07T16:44:16;100184.00;;;5.40;75.82
60427;BME280;46274;47.168;27.604;2023-04-07T16:50:23;100198.97;;;3.91;81.63
60427;BME280;46274;47.168;27.604;2023-04-07T16:56:25;100213.06;;;5.16;77.29
60427;BME280;46274;47.168;27.604;2023-04-07T17:02:34;100186.25;;;5.35;75.72
60427;BME280;46274;47.168;27.604;2023-04-07T17:08:43;100205.47;;;5.31;76.05
60427;BME280;46274;47.168;27.604;2023-04-07T17:14:45;100210.28;;;5.37;75.70
60427;BME280;46274;47.168;27.604;2023-04-07T17:20:48;100225.19;;;4.91;77.61
60427;BME280;46274;47.168;27.604;2023-04-07T17:26:54;100244.06;;;3.86;81.34
60427;BME280;46274;47.168;27.604;2023-04-07T17:32:57;100143.66;;;4.11;78.71
60427;BME280;46274;47.168;27.604;2023-04-07T17:39:03;100207.84;;;4.64;76.97
60427;BME280;46274;47.168;27.604;2023-04-07T17:45:09;100238.00;;;4.47;77.97
60427;BME280;46274;47.168;27.604;2023-04-07T17:51:13;100268.91;;;3.56;82.99
60427;BME280;46274;47.168;27.604;2023-04-07T17:57:17;100252.06;;;4.39;79.03
60427;BME280;46274;47.168;27.604;2023-04-07T18:03:22;100234.59;;;4.45;77.13
60427;BME280;46274;47.168;27.604;2023-04-07T18:09:25;100266.84;;;4.54;77.95
60427;BME280;46274;47.168;27.604;2023-04-07T18:15:27;100287.19;;;4.57;77.48
60427;BME280;46274;47.168;27.604;2023-04-07T18:21:32;100285.09;;;4.40;78.22
60427;BME280;46274;47.168;27.604;2023-04-07T18:27:35;100283.81;;;4.34;78.30
60427;BME280;46274;47.168;27.604;2023-04-07T18:33:39;100292.75;;;4.23;79.30
60427;BME280;46274;47.168;27.604;2023-04-07T18:39:43;100286.31;;;3.93;80.16
60427;BME280;46274;47.168;27.604;2023-04-07T18:45:46;100078.59;;;3.04;78.22
60427;BME280;46274;47.168;27.604;2023-04-07T18:51:48;100275.94;;;3.68;80.65
60427;BME280;46274;47.168;27.604;2023-04-07T18:57:53;100283.28;;;4.19;77.79
60427;BME280;46274;47.168;27.604;2023-04-07T19:03:55;100303.88;;;3.98;78.46
60427;BME280;46274;47.168;27.604;2023-04-07T19:09:59;100205.50;;;3.45;78.05
60427;BME280;46274;47.168;27.604;2023-04-07T19:16:01;100318.09;;;3.66;79.53
60427;BME280;46274;47.168;27.604;2023-04-07T19:22:05;100316.66;;;3.94;78.63
60427;BME280;46274;47.168;27.604;2023-04-07T19:28:08;100230.56;;;3.23;79.23
60427;BME280;46274;47.168;27.604;2023-04-07T19:34:10;100295.56;;;2.69;84.80
60427;BME280;46274;47.168;27.604;2023-04-07T19:40:17;100316.19;;;3.57;80.46
60427;BME280;46274;47.168;27.604;2023-04-07T19:46:19;100316.41;;;3.65;79.38
60427;BME280;46274;47.168;27.604;2023-04-07T19:52:22;100308.47;;;2.97;82.05
60427;BME280;46274;47.168;27.604;2023-04-07T19:58:25;100302.19;;;2.40;85.90
60427;BME280;46274;47.168;27.604;2023-04-07T20:04:28;100297.34;;;3.24;81.11
60427;BME280;46274;47.168;27.604;2023-04-07T20:10:30;100324.31;;;3.55;79.80
60427;BME280;46274;47.168;27.604;2023-04-07T20:16:33;100326.28;;;3.53;79.47
60427;BME280;46274;47.168;27.604;2023-04-07T20:22:36;100301.84;;;3.35;79.08
60427;BME280;46274;47.168;27.604;2023-04-07T20:28:38;100331.78;;;3.29;79.14
60427;BME280;46274;47.168;27.604;2023-04-07T20:34:43;100323.28;;;3.01;80.01
60427;BME280;46274;47.168;27.604;2023-04-07T20:40:46;100247.09;;;1.45;86.76
60427;BME280;46274;47.168;27.604;2023-04-07T20:46:49;100331.56;;;2.98;81.55
60427;BME280;46274;47.168;27.604;2023-04-07T20:52:53;100321.94;;;2.96;79.94
60427;BME280;46274;47.168;27.604;2023-04-07T20:58:55;100249.47;;;2.54;80.04
60427;BME280;46274;47.168;27.604;2023-04-07T21:04:57;100295.31;;;2.72;79.57
60427;BME280;46274;47.168;27.604;2023-04-07T21:11:01;100342.75;;;3.15;78.28
60427;BME280;46274;47.168;27.604;2023-04-07T21:17:06;100342.16;;;3.00;79.51
60427;BME280;46274;47.168;27.604;2023-04-07T21:23:09;100309.13;;;2.43;80.39
60427;BME280;46274;47.168;27.604;2023-04-07T21:29:14;100222.06;;;0.98;87.93
60427;BME280;46274;47.168;27.604;2023-04-07T21:35:17;100213.50;;;0.56;88.79
60427;BME280;46274;47.168;27.604;2023-04-07T21:41:20;100361.56;;;1.37;89.84
60427;BME280;46274;47.168;27.604;2023-04-07T21:47:23;100330.50;;;0.99;91.45
60427;BME280;46274;47.168;27.604;2023-04-07T21:53:26;100243.28;;;1.60;85.41
60427;BME280;46274;47.168;27.604;2023-04-07T21:59:28;100358.94;;;2.33;83.78
60427;BME280;46274;47.168;27.604;2023-04-07T22:05:32;100359.28;;;1.56;88.43
60427;BME280;46274;47.168;27.604;2023-04-07T22:11:36;100350.06;;;1.97;84.50
60427;BME280;46274;47.168;27.604;2023-04-07T22:17:39;100259.47;;;1.46;85.45
60427;BME280;46274;47.168;27.604;2023-04-07T22:23:42;100370.09;;;2.27;84.03
60427;BME280;46274;47.168;27.604;2023-04-07T22:29:45;100363.72;;;2.40;83.04
60427;BME280;46274;47.168;27.604;2023-04-07T22:35:47;100307.38;;;2.20;82.44
60427;BME280;46274;47.168;27.604;2023-04-07T22:41:50;100310.06;;;2.31;81.17
60427;BME280;46274;47.168;27.604;2023-04-07T22:47:54;100239.16;;;1.67;82.77
60427;BME280;46274;47.168;27.604;2023-04-07T22:53:57;100363.66;;;2.29;82.46
60427;BME280;46274;47.168;27.604;2023-04-07T22:59:59;100332.22;;;2.44;81.32
60427;BME280;46274;47.168;27.604;2023-04-07T23:06:02;100313.00;;;2.39;80.97
60427;BME280;46274;47.168;27.604;2023-04-07T23:12:05;100350.16;;;1.95;83.81
60427;BME280;46274;47.168;27.604;2023-04-07T23:18:07;100341.41;;;1.93;86.42
60427;BME280;46274;47.168;27.604;2023-04-07T23:24:10;100336.59;;;2.45;82.66
60427;BME280;46274;47.168;27.604;2023-04-07T23:30:15;100345.59;;;2.44;82.01
60427;BME280;46274;47.168;27.604;2023-04-07T23:36:18;100344.50;;;2.11;83.58
60427;BME280;46274;47.168;27.604;2023-04-07T23:42:20;100343.13;;;2.30;82.47
60427;BME280;46274;47.168;27.604;2023-04-07T23:48:25;100312.66;;;2.08;81.89
60427;BME280;46274;47.168;27.604;2023-04-07T23:54:27;100356.44;;;2.18;82.02
